الصفحة الرئيسية
METAR-TAF:

METAR-TAF

مطار :

مطار أوكلاند الدولي

أوكلاند, نيوزيلندا

دائرة عرض: 37-01S, خط طول: 174-48E, ارتفاع: 7 متر

مراقبة الطقس الحالي

تاريخ ووقت الإصدار 17 دقيقة قبل الساعة 15:00UTC
ريح 3 عقدة من الجنوب/الجنوب الغربي
درجة الحرارة 10°درجة مئوية
الرطوبة 87%
ضغط 1032 hPa
الرؤية 10 كم أو أكثر

METAR: NZAA 151500Z AUTO 20003KT 9999 FEW027/// 10/08 Q1032 NOSIG

زمن: 04:17 (15:17 UTC)

توقعات

تاريخ ووقت الإصدار 4ساعات و 15 دقيقة قبل الساعة 11:02UTC
التوقعات صالحة من15 الساعة 12 UTC إلى 16 الساعة 12 UTC
ريح 5 عقدة من الجنوب
الرؤية 10 كم أو أكثر
غيوم متفرقة على ارتفاع 2500 قدم
أصبح
من 15 الساعة 22 UTC إلى 16 الساعة 00 UTC
ريح 15 عقدة من الجنوب الغربي

TAF: NZAA 151102Z 1512/1612 18005KT 9999 SCT025 BECMG 1522/1600 22015KT

أرصاد الطقس والتوقعات من أكثر من 4000 مطار (تقارير الطقس للمطار METAR والتنبؤ بالطقس بالمطارTAF).

المحطات المتاحة هي النقط الصفراء والحمراء على الخريطة.

حرك المؤشر فوق النقطة لمعرفة اسم المحطة.

ثم انقر لمعرفة أرصاد وتوقعات الطقس.

لتغيير الخارطة: اضغط على الأزرار الخضراء مع رمز الصليب الأسود للتكبير. على الزر الأخضر مع شرطة للتصغير، أو على الأسهم الخضراء للخرائط المجاورة.


METAR-TAF: